Time;durP1;ratioP1;P1;durP2;ratioP2;P2;SDS_P1;SDS_P2;PMS_P1;PMS_P2;Temp;Humidity;BMP_temperature;BMP_pressure;BME280_temperature;BME280_humidity;BME280_pressure;Samples;Min_cycle;Max_cycle;Signal;HPM_P1;HPM_P2
2023/07/25 00:00:58;;;;;;;9.10;4.03;;;15.10;99.90;;;;;;5075002;28;20025;-66
2023/07/25 00:03:23;;;;;;;11.57;3.97;;;15.10;99.90;;;;;;5073965;28;20016;-66
2023/07/25 00:05:49;;;;;;;14.98;4.30;;;15.10;99.90;;;;;;5074410;28;20071;-65
2023/07/25 00:08:14;;;;;;;8.00;4.10;;;15.00;99.90;;;;;;5074539;28;20104;-65
2023/07/25 00:10:40;;;;;;;7.07;3.40;;;15.00;99.90;;;;;;5074429;28;20048;-65
2023/07/25 00:13:05;;;;;;;10.48;4.35;;;15.00;99.90;;;;;;5074340;28;20393;-65
2023/07/25 00:15:31;;;;;;;9.50;4.28;;;14.90;99.90;;;;;;5074375;28;20082;-64
2023/07/25 00:17:56;;;;;;;10.32;4.20;;;14.90;99.90;;;;;;5074561;28;20085;-65
2023/07/25 00:20:22;;;;;;;10.85;4.00;;;14.90;99.90;;;;;;5074380;28;20435;-65
2023/07/25 00:22:48;;;;;;;5.90;3.90;;;14.90;99.90;;;;;;5056355;28;20394;-65
2023/07/25 00:25:13;;;;;;;11.85;4.13;;;15.00;99.90;;;;;;5074065;28;20039;-65
2023/07/25 00:27:39;;;;;;;8.30;3.78;;;14.90;99.90;;;;;;5074279;28;20068;-65
2023/07/25 00:30:05;;;;;;;9.73;4.45;;;15.00;99.90;;;;;;5074074;28;20107;-65
2023/07/25 00:32:34;;;;;;;9.90;4.20;;;14.90;99.90;;;;;;5073973;28;20035;-65
2023/07/25 00:34:59;;;;;;;11.35;4.25;;;14.90;99.90;;;;;;5039482;28;20465;-64
2023/07/25 00:37:28;;;;;;;11.93;4.30;;;14.90;99.90;;;;;;5073984;28;20063;-65
2023/07/25 00:39:53;;;;;;;11.70;4.45;;;14.90;99.90;;;;;;5074003;28;20028;-64
2023/07/25 00:42:19;;;;;;;10.70;4.22;;;14.90;99.90;;;;;;5073526;28;20055;-65
2023/07/25 00:44:44;;;;;;;11.15;4.63;;;14.90;99.90;;;;;;5073633;28;20028;-65
2023/07/25 00:47:10;;;;;;;14.32;4.45;;;14.90;99.90;;;;;;5073715;28;20052;-65
2023/07/25 00:49:36;;;;;;;9.75;3.80;;;14.90;99.90;;;;;;5073703;28;20389;-65
2023/07/25 00:52:02;;;;;;;14.45;4.30;;;14.90;99.90;;;;;;5073771;28;20024;-65
2023/07/25 00:54:27;;;;;;;10.02;4.68;;;14.90;99.90;;;;;;5073714;28;20032;-66
2023/07/25 00:56:53;;;;;;;10.93;3.75;;;14.90;99.90;;;;;;5073635;28;20029;-65
2023/07/25 00:59:18;;;;;;;11.52;4.13;;;14.90;99.90;;;;;;5073515;28;20401;-65
2023/07/25 01:01:44;;;;;;;10.07;4.78;;;14.80;99.90;;;;;;5073543;28;20029;-65
2023/07/25 01:04:09;;;;;;;15.13;4.45;;;14.90;99.90;;;;;;5073410;28;20031;-64
2023/07/25 01:06:37;;;;;;;9.02;4.18;;;14.80;99.90;;;;;;5073626;28;20044;-64
2023/07/25 01:09:03;;;;;;;8.52;3.97;;;14.90;99.90;;;;;;5073545;28;20497;-65
2023/07/25 01:11:28;;;;;;;10.65;4.57;;;14.90;99.90;;;;;;5073464;28;20029;-65
2023/07/25 01:13:54;;;;;;;12.07;4.13;;;14.90;99.90;;;;;;5073252;28;20020;-65
2023/07/25 01:16:22;;;;;;;13.52;4.65;;;14.90;99.90;;;;;;5073261;28;20027;-65
2023/07/25 01:18:49;;;;;;;11.63;4.45;;;14.80;99.90;;;;;;5055231;28;20482;-65
2023/07/25 01:21:14;;;;;;;11.15;4.40;;;14.80;99.90;;;;;;5073561;28;20385;-65
2023/07/25 01:23:41;;;;;;;12.48;4.85;;;14.60;99.90;;;;;;5073349;28;20111;-65
2023/07/25 01:26:08;;;;;;;9.95;4.80;;;14.80;99.90;;;;;;5060718;28;20056;-65
2023/07/25 01:28:33;;;;;;;8.00;4.25;;;14.80;99.90;;;;;;5073478;28;20081;-66
2023/07/25 01:30:59;;;;;;;10.10;4.63;;;15.10;99.90;;;;;;5073217;28;20047;-65
2023/07/25 01:33:24;;;;;;;9.52;3.95;;;14.80;99.90;;;;;;5073305;28;20108;-64
2023/07/25 01:35:50;;;;;;;7.25;4.43;;;14.90;99.90;;;;;;5073118;28;20039;-65
2023/07/25 01:38:16;;;;;;;8.43;4.50;;;14.60;99.90;;;;;;5073215;28;20115;-65
2023/07/25 01:40:41;;;;;;;9.50;4.43;;;14.80;99.90;;;;;;5072789;28;20040;-65
2023/07/25 01:43:08;;;;;;;10.55;4.65;;;;;;;;;;5073167;28;20120;-65
2023/07/25 01:45:34;;;;;;;12.02;4.80;;;;;;;;;;5073034;28;20072;-64
2023/07/25 01:47:59;;;;;;;11.02;4.30;;;14.70;99.90;;;;;;5073088;28;20032;-64
2023/07/25 01:50:27;;;;;;;10.63;4.30;;;14.80;99.90;;;;;;5072963;28;20024;-64
2023/07/25 01:52:52;;;;;;;11.43;5.03;;;14.50;99.90;;;;;;5073073;28;20157;-65
2023/07/25 01:55:18;;;;;;;12.07;5.30;;;14.60;99.90;;;;;;5073162;28;20032;-65
2023/07/25 01:57:43;;;;;;;11.13;5.43;;;14.60;99.90;;;;;;5073171;28;20146;-64
2023/07/25 02:00:09;;;;;;;10.40;4.95;;;14.60;99.90;;;;;;5073114;28;20032;-65
2023/07/25 02:02:35;;;;;;;12.98;5.13;;;14.50;99.90;;;;;;5072710;28;20500;-65
2023/07/25 02:05:00;;;;;;;17.85;5.07;;;14.50;99.90;;;;;;5072890;28;20028;-65
2023/07/25 02:07:26;;;;;;;11.88;5.70;;;14.60;99.90;;;;;;5072984;28;20025;-65
2023/07/25 02:09:52;;;;;;;10.88;5.75;;;;;;;;;;5072766;28;20035;-65
2023/07/25 02:12:18;;;;;;;11.50;5.97;;;14.40;99.90;;;;;;5072813;28;20071;-65
2023/07/25 02:14:43;;;;;;;8.15;5.38;;;14.50;99.90;;;;;;5072829;28;20024;-65
2023/07/25 02:17:09;;;;;;;8.65;6.15;;;14.40;99.90;;;;;;5072767;28;20056;-65
2023/07/25 02:19:35;;;;;;;12.77;5.53;;;;;;;;;;5072800;28;20481;-65
2023/07/25 02:22:01;;;;;;;12.65;5.75;;;;;;;;;;5072708;28;20078;-65
2023/07/25 02:24:27;;;;;;;15.55;6.75;;;14.10;99.90;;;;;;5072694;28;20041;-64
2023/07/25 02:26:53;;;;;;;15.27;6.13;;;;;;;;;;5073190;28;20024;-65
2023/07/25 02:29:18;;;;;;;9.68;5.90;;;13.80;99.90;;;;;;5076318;28;20017;-64
2023/07/25 02:31:44;;;;;;;9.73;6.38;;;14.00;99.90;;;;;;5076555;28;20073;-65
2023/07/25 02:34:09;;;;;;;13.07;6.65;;;14.00;99.90;;;;;;5076258;28;20036;-65
2023/07/25 02:36:35;;;;;;;13.95;7.28;;;;;;;;;;5076187;28;20065;-65
2023/07/25 02:39:03;;;;;;;21.15;6.93;;;;;;;;;;5076236;28;20477;-65
2023/07/25 02:41:29;;;;;;;12.52;7.32;;;13.60;99.90;;;;;;5075940;28;20052;-66
2023/07/25 02:43:54;;;;;;;12.55;7.30;;;13.80;99.90;;;;;;5076285;28;20371;-65
2023/07/25 02:46:20;;;;;;;13.95;7.30;;;12.70;99.90;;;;;;5076173;28;20021;-65
2023/07/25 02:48:46;;;;;;;10.82;7.13;;;;;;;;;;5076146;28;20035;-65
2023/07/25 02:51:13;;;;;;;15.98;7.15;;;;;;;;;;5075895;28;20095;-65
2023/07/25 02:53:38;;;;;;;15.32;7.72;;;13.70;99.90;;;;;;5075890;28;20021;-65
2023/07/25 02:56:04;;;;;;;15.48;7.40;;;13.50;99.90;;;;;;5076043;28;20081;-65
2023/07/25 02:58:30;;;;;;;12.98;7.25;;;13.60;99.90;;;;;;5075767;28;20052;-65
2023/07/25 03:00:56;;;;;;;16.05;7.15;;;;;;;;;;5075788;28;20079;-65
2023/07/25 03:03:21;;;;;;;16.45;8.00;;;;;;;;;;5075741;28;20047;-65
2023/07/25 03:05:47;;;;;;;12.43;7.95;;;13.70;99.90;;;;;;5075563;28;20390;-65
2023/07/25 03:08:13;;;;;;;19.40;7.57;;;;;;;;;;5075647;28;20389;-65
2023/07/25 03:10:39;;;;;;;14.73;7.10;;;;;;;;;;5075836;28;20016;-65
2023/07/25 03:13:05;;;;;;;15.95;7.43;;;;;;;;;;5075567;28;20103;-65
2023/07/25 03:15:31;;;;;;;13.75;7.55;;;;;;;;;;5075745;28;20029;-65
2023/07/25 03:17:57;;;;;;;16.08;7.63;;;;;;;;;;5075385;28;20024;-65
2023/07/25 03:20:23;;;;;;;17.30;7.82;;;;;;;;;;5075339;28;20032;-65
2023/07/25 03:22:49;;;;;;;17.67;8.05;;;;;;;;;;5075312;28;20103;-65
2023/07/25 03:25:14;;;;;;;17.33;8.77;;;13.10;99.90;;;;;;5075194;28;20020;-65
2023/07/25 03:27:40;;;;;;;12.73;7.55;;;;;;;;;;5075243;28;20025;-65
2023/07/25 03:30:07;;;;;;;14.10;8.23;;;;;;;;;;5075234;28;20031;-65
2023/07/25 03:32:32;;;;;;;15.23;8.02;;;13.20;99.90;;;;;;5075183;28;20028;-65
2023/07/25 03:34:58;;;;;;;20.02;9.25;;;;;;;;;;5075253;28;20020;-65
2023/07/25 03:37:24;;;;;;;17.50;8.57;;;;;;;;;;5075240;28;20064;-65
2023/07/25 03:39:50;;;;;;;16.80;9.02;;;;;;;;;;5074928;28;20051;-65
2023/07/25 03:42:16;;;;;;;18.48;8.88;;;13.20;99.90;;;;;;5074850;28;20409;-65
2023/07/25 03:44:42;;;;;;;16.17;9.07;;;;;;;;;;5075066;28;20043;-65
2023/07/25 03:47:08;;;;;;;21.88;9.70;;;;;;;;;;5074914;28;20121;-65
2023/07/25 03:49:34;;;;;;;22.48;9.80;;;;;;;;;;5074864;28;20094;-65
2023/07/25 03:51:59;;;;;;;25.98;10.02;;;12.90;99.90;;;;;;5075050;28;20389;-65
2023/07/25 03:54:25;;;;;;;23.17;10.10;;;13.20;99.90;;;;;;5074770;28;20056;-65
2023/07/25 03:56:51;;;;;;;19.27;10.38;;;;;;;;;;5074658;28;20075;-65
2023/07/25 03:59:18;;;;;;;22.45;10.68;;;13.20;99.90;;;;;;5074625;28;20029;-65
2023/07/25 04:01:44;;;;;;;18.30;10.30;;;13.20;99.90;;;;;;5074606;28;20397;-65
2023/07/25 04:04:10;;;;;;;25.85;10.95;;;;;;;;;;5074505;28;20112;-65
2023/07/25 04:06:37;;;;;;;20.27;10.73;;;13.40;99.90;;;;;;5074482;28;20052;-65
2023/07/25 04:09:03;;;;;;;24.15;11.65;;;13.20;99.90;;;;;;5040400;28;20533;-65
2023/07/25 04:11:29;;;;;;;23.17;10.95;;;;;;;;;;5074552;28;20111;-65
2023/07/25 04:13:54;;;;;;;22.83;12.35;;;13.10;99.90;;;;;;5074422;28;20543;-65
2023/07/25 04:16:20;;;;;;;16.20;10.10;;;13.10;99.90;;;;;;5074424;28;20107;-65
2023/07/25 04:18:45;;;;;;;23.60;11.23;;;13.20;99.90;;;;;;5074259;28;20529;-66
2023/07/25 04:21:11;;;;;;;22.20;11.00;;;;;;;;;;5074178;28;20119;-65
2023/07/25 04:23:38;;;;;;;21.60;11.13;;;;;;;;;;5074136;28;20104;-65
2023/07/25 04:26:03;;;;;;;21.17;11.38;;;13.20;99.90;;;;;;5074057;28;20056;-65
2023/07/25 04:28:29;;;;;;;23.35;11.15;;;13.20;99.90;;;;;;5074068;28;20161;-65
2023/07/25 04:30:54;;;;;;;17.58;10.90;;;13.30;99.90;;;;;;5074305;28;20025;-65
2023/07/25 04:33:20;;;;;;;21.60;11.10;;;;;;;;;;5073976;28;20096;-65
2023/07/25 04:35:46;;;;;;;19.25;9.95;;;13.40;99.90;;;;;;5073902;28;20039;-65
2023/07/25 04:38:13;;;;;;;16.30;9.70;;;;;;;;;;5073758;28;20078;-65
2023/07/25 04:40:38;;;;;;;18.98;9.70;;;13.50;99.90;;;;;;5073790;28;20110;-65
2023/07/25 04:43:04;;;;;;;17.23;9.23;;;13.80;99.90;;;;;;5073838;28;20025;-65
2023/07/25 04:45:30;;;;;;;17.58;9.38;;;13.70;99.90;;;;;;5073759;28;20040;-66
2023/07/25 04:47:55;;;;;;;18.15;8.98;;;13.80;99.90;;;;;;5074066;28;20035;-65
2023/07/25 04:50:21;;;;;;;14.65;8.32;;;13.80;99.90;;;;;;5073113;28;20103;-65
2023/07/25 04:52:46;;;;;;;14.25;7.35;;;13.90;99.90;;;;;;5073645;28;20025;-65
2023/07/25 04:55:12;;;;;;;15.73;7.72;;;13.90;99.90;;;;;;5073868;28;20498;-64
2023/07/25 04:57:37;;;;;;;15.70;7.20;;;13.90;99.90;;;;;;5073335;28;20021;-65
2023/07/25 05:00:05;;;;;;;10.07;7.15;;;14.10;99.90;;;;;;5055522;28;20432;-65
2023/07/25 05:02:30;;;;;;;20.23;7.68;;;14.10;99.90;;;;;;5073642;28;20044;-65
2023/07/25 05:04:56;;;;;;;11.75;6.55;;;14.30;99.90;;;;;;5073690;28;20025;-65
2023/07/25 05:07:21;;;;;;;13.68;6.47;;;14.30;99.90;;;;;;5073469;28;20036;-65
2023/07/25 05:09:47;;;;;;;13.90;6.97;;;14.40;99.90;;;;;;5073577;28;20494;-65
2023/07/25 05:12:13;;;;;;;12.38;6.95;;;14.50;99.90;;;;;;5073573;28;20125;-65
2023/07/25 05:14:39;;;;;;;14.25;6.60;;;14.70;99.90;;;;;;5073401;28;20500;-65
2023/07/25 05:17:04;;;;;;;12.70;6.00;;;14.80;99.90;;;;;;5055611;28;20028;-65
2023/07/25 05:19:30;;;;;;;11.15;6.60;;;14.80;99.90;;;;;;5055600;28;20082;-67
2023/07/25 05:21:56;;;;;;;9.95;5.93;;;14.70;99.90;;;;;;5073532;28;20108;-65
2023/07/25 05:24:21;;;;;;;11.05;5.65;;;14.70;99.90;;;;;;5073118;28;20493;-65
2023/07/25 05:26:47;;;;;;;10.23;6.63;;;14.70;99.90;;;;;;5073265;28;20102;-65
2023/07/25 05:29:12;;;;;;;13.93;6.63;;;14.80;99.90;;;;;;5073268;28;20025;-65
2023/07/25 05:31:38;;;;;;;12.52;6.03;;;14.80;99.90;;;;;;5073252;28;20025;-65
2023/07/25 05:34:03;;;;;;;11.85;6.18;;;14.90;99.90;;;;;;5073268;28;20036;-65
2023/07/25 05:36:29;;;;;;;7.13;4.75;;;15.10;99.90;;;;;;5073308;28;20025;-65
2023/07/25 05:38:54;;;;;;;9.88;4.68;;;15.50;99.90;;;;;;5073310;28;20029;-65
2023/07/25 05:41:20;;;;;;;10.10;5.03;;;16.00;99.90;;;;;;5072861;28;20045;-65
2023/07/25 05:43:46;;;;;;;10.55;4.07;;;16.40;99.90;;;;;;5073273;28;20048;-65
2023/07/25 05:46:13;;;;;;;9.38;3.97;;;16.90;58.90;;;;;;5073120;28;20427;-65
2023/07/25 05:48:39;;;;;;;11.18;3.72;;;17.60;17.20;;;;;;5073114;28;20020;-65
2023/07/25 05:51:04;;;;;;;13.48;4.03;;;18.40;1.00;;;;;;5073271;28;20029;-66
2023/07/25 05:53:30;;;;;;;15.70;9.18;;;19.00;1.00;;;;;;5073319;28;20032;-66
2023/07/25 05:55:55;;;;;;;7.65;3.60;;;19.40;1.00;;;;;;5073138;28;20036;-65
2023/07/25 05:58:21;;;;;;;11.38;3.75;;;19.50;99.90;;;;;;5072856;28;20024;-65
2023/07/25 06:00:48;;;;;;;11.32;3.55;;;19.80;99.90;;;;;;5073592;28;20033;-65
2023/07/25 06:03:15;;;;;;;7.97;3.25;;;19.80;99.90;;;;;;5059133;28;20440;-65
2023/07/25 06:05:41;;;;;;;8.40;3.58;;;20.20;99.90;;;;;;5076671;28;20024;-65
2023/07/25 06:08:07;;;;;;;8.23;2.95;;;20.20;1.00;;;;;;5059004;28;20546;-65
2023/07/25 06:10:34;;;;;;;7.22;2.97;;;20.70;90.70;;;;;;5076691;28;20052;-65
2023/07/25 06:13:00;;;;;;;8.82;2.70;;;20.90;99.90;;;;;;5076754;28;20040;-66
2023/07/25 06:15:28;;;;;;;9.57;2.85;;;21.60;99.90;;;;;;5076562;28;20021;-65
2023/07/25 06:17:53;;;;;;;9.80;2.70;;;21.70;99.90;;;;;;5076543;28;20029;-65
2023/07/25 06:20:19;;;;;;;5.38;2.50;;;21.70;99.90;;;;;;5076473;28;20028;-65
2023/07/25 06:22:45;;;;;;;4.47;2.20;;;22.00;99.90;;;;;;5076436;28;20020;-65
2023/07/25 06:25:14;;;;;;;9.45;2.67;;;22.20;99.90;;;;;;5076385;28;20117;-64
2023/07/25 06:27:39;;;;;;;6.60;2.50;;;22.20;99.90;;;;;;5058952;28;20035;-64
2023/07/25 06:30:05;;;;;;;9.82;2.38;;;22.60;23.30;;;;;;5076375;28;20028;-65
2023/07/25 06:32:31;;;;;;;7.18;2.65;;;23.00;99.90;;;;;;5076347;28;20056;-64
2023/07/25 06:34:56;;;;;;;5.32;2.33;;;23.20;1.00;;;;;;5076331;28;20074;-65
2023/07/25 06:37:23;;;;;;;8.25;2.60;;;23.20;1.00;;;;;;5076119;28;20036;-64
2023/07/25 06:39:48;;;;;;;8.65;2.22;;;24.00;1.00;;;;;;5076167;28;20384;-64
2023/07/25 06:42:14;;;;;;;7.07;2.13;;;24.40;99.90;;;;;;5075981;28;20101;-64
2023/07/25 06:44:39;;;;;;;8.70;2.70;;;24.40;1.00;;;;;;5075757;28;20024;-65
2023/07/25 06:47:05;;;;;;;6.65;2.13;;;24.50;99.90;;;;;;5076039;28;20446;-65
2023/07/25 06:49:31;;;;;;;5.60;2.00;;;25.30;99.90;;;;;;5075921;28;20070;-65
2023/07/25 06:51:56;;;;;;;7.60;2.60;;;25.60;20.50;;;;;;5076167;28;20381;-63
2023/07/25 06:54:22;;;;;;;6.00;2.00;;;25.00;99.90;;;;;;5076132;28;20032;-64
2023/07/25 06:56:47;;;;;;;6.15;2.20;;;25.10;99.90;;;;;;5076009;28;20090;-63
2023/07/25 06:59:13;;;;;;;8.35;2.60;;;24.60;42.60;;;;;;5075949;28;20489;-64
2023/07/25 07:01:39;;;;;;;8.05;2.20;;;25.30;99.90;;;;;;5075758;28;20052;-64
2023/07/25 07:04:05;;;;;;;4.97;1.85;;;25.00;1.00;;;;;;5075777;28;20028;-64
2023/07/25 07:06:30;;;;;;;7.20;2.30;;;23.50;1.00;;;;;;5075503;28;20048;-64
2023/07/25 07:08:56;;;;;;;8.20;2.15;;;22.90;99.90;;;;;;5075585;28;20024;-65
2023/07/25 07:11:21;;;;;;;6.90;2.13;;;22.40;99.90;;;;;;5075815;28;20051;-65
2023/07/25 07:13:47;;;;;;;8.50;2.35;;;22.60;99.90;;;;;;5074963;28;20034;-65
2023/07/25 07:16:14;;;;;;;6.88;2.40;;;22.30;99.90;;;;;;5075559;28;20073;-64
2023/07/25 07:18:39;;;;;;;12.55;2.45;;;21.60;99.90;;;;;;5075603;28;20427;-64
2023/07/25 07:21:05;;;;;;;7.53;2.30;;;21.50;99.90;;;;;;5075668;28;20032;-64
2023/07/25 07:23:31;;;;;;;7.50;2.20;;;21.90;1.00;;;;;;5075473;28;20043;-64
2023/07/25 07:25:56;;;;;;;6.78;2.60;;;21.40;99.90;;;;;;5075219;28;20032;-63
2023/07/25 07:28:22;;;;;;;11.40;2.60;;;20.90;1.00;;;;;;5075300;28;20035;-65
2023/07/25 07:30:49;;;;;;;8.25;2.40;;;21.00;1.00;;;;;;5075417;28;20054;-65
2023/07/25 07:33:14;;;;;;;8.07;2.60;;;21.80;10.40;;;;;;5075218;28;20020;-65
2023/07/25 07:35:40;;;;;;;8.10;2.35;;;22.00;99.90;;;;;;5075436;28;20078;-65
2023/07/25 07:38:05;;;;;;;10.15;2.40;;;22.40;99.90;;;;;;5075292;28;20028;-65
2023/07/25 07:40:32;;;;;;;8.98;2.35;;;21.90;1.00;;;;;;5075146;28;20041;-65
2023/07/25 07:42:57;;;;;;;8.25;2.45;;;21.50;37.60;;;;;;5074974;28;20105;-65
2023/07/25 07:45:24;;;;;;;7.70;2.28;;;21.30;1.00;;;;;;5074646;28;20041;-65
2023/07/25 07:47:50;;;;;;;8.65;2.58;;;21.10;99.90;;;;;;5075107;28;20028;-64
2023/07/25 07:50:18;;;;;;;9.50;2.75;;;20.70;99.90;;;;;;5074961;28;20020;-64
2023/07/25 07:52:43;;;;;;;10.15;2.42;;;21.30;99.90;;;;;;5057153;28;20103;-65
2023/07/25 07:55:10;;;;;;;9.02;2.70;;;20.90;1.00;;;;;;5074987;28;20537;-64
2023/07/25 07:57:45;;;;;;;10.20;2.53;;;20.70;1.00;;;;;;5074652;28;20031;-65
2023/07/25 08:00:13;;;;;;;7.35;2.15;;;20.70;1.00;;;;;;5057171;28;20036;-65
2023/07/25 08:02:39;;;;;;;16.95;2.65;;;19.90;1.00;;;;;;5056772;28;20094;-64
2023/07/25 08:05:05;;;;;;;8.90;2.30;;;20.30;99.90;;;;;;5074512;28;20024;-65
2023/07/25 08:07:31;;;;;;;10.30;2.05;;;21.20;1.00;;;;;;5074636;28;20474;-64
2023/07/25 08:09:57;;;;;;;8.07;2.15;;;22.60;99.90;;;;;;5074617;28;20025;-64
2023/07/25 08:12:22;;;;;;;7.45;2.47;;;23.30;99.90;;;;;;5074334;28;20035;-64
2023/07/25 08:14:48;;;;;;;10.60;2.40;;;22.60;99.90;;;;;;5056572;28;20032;-64
2023/07/25 08:17:14;;;;;;;9.52;2.40;;;21.80;99.90;;;;;;5056507;28;20024;-64
2023/07/25 08:19:40;;;;;;;5.45;2.13;;;21.30;99.90;;;;;;5074353;28;20039;-64
2023/07/25 08:22:05;;;;;;;7.35;2.30;;;20.90;1.00;;;;;;5074666;28;20457;-64
2023/07/25 08:24:32;;;;;;;13.10;2.67;;;20.80;99.90;;;;;;5073385;28;20028;-64
2023/07/25 08:26:59;;;;;;;7.28;2.65;;;20.80;99.90;;;;;;5074343;28;20473;-64
2023/07/25 08:29:25;;;;;;;10.93;2.35;;;20.80;99.90;;;;;;5074255;28;20040;-64
2023/07/25 08:31:50;;;;;;;8.43;2.28;;;20.60;1.00;;;;;;5074008;28;20024;-64
2023/07/25 08:34:16;;;;;;;8.13;2.50;;;20.70;99.90;;;;;;5073975;28;20044;-64
2023/07/25 08:36:42;;;;;;;6.13;2.25;;;20.80;99.90;;;;;;5073919;28;20025;-64
2023/07/25 08:39:07;;;;;;;4.20;1.90;;;20.90;1.00;;;;;;5073900;28;20414;-64
2023/07/25 08:41:37;;;;;;;5.15;2.03;;;21.60;1.00;;;;;;5073611;28;20082;-64
2023/07/25 08:44:04;;;;;;;6.85;2.17;;;20.70;1.00;;;;;;5073868;28;20056;-64
2023/07/25 08:46:32;;;;;;;8.80;2.40;;;20.00;1.00;;;;;;5074073;28;20020;-64
2023/07/25 08:49:01;;;;;;;8.93;2.47;;;19.90;1.00;;;;;;5073709;28;20537;-64
2023/07/25 08:51:27;;;;;;;8.40;2.05;;;19.30;99.90;;;;;;5039799;28;20029;-64
2023/07/25 08:54:02;;;;;;;6.55;2.30;;;19.30;1.00;;;;;;5073864;28;20477;-64
2023/07/25 08:56:28;;;;;;;13.00;2.33;;;19.40;87.30;;;;;;5073575;28;20421;-64
2023/07/25 08:58:54;;;;;;;8.30;2.30;;;19.30;1.00;;;;;;5073447;28;20021;-64
2023/07/25 09:01:21;;;;;;;6.97;2.10;;;19.30;99.90;;;;;;5073422;28;20097;-64
2023/07/25 09:03:47;;;;;;;7.47;2.33;;;19.30;99.90;;;;;;5073517;28;20024;-64
2023/07/25 09:06:13;;;;;;;5.18;2.30;;;19.30;99.90;;;;;;5073475;28;20393;-64
2023/07/25 09:08:39;;;;;;;6.72;2.13;;;19.20;1.00;;;;;;5073437;28;20029;-64
2023/07/25 09:11:08;;;;;;;8.35;2.55;;;19.20;1.00;;;;;;5073550;28;20446;-64
2023/07/25 09:13:34;;;;;;;10.70;2.70;;;19.00;99.90;;;;;;5056116;28;20025;-65
2023/07/25 09:15:59;;;;;;;9.25;2.38;;;18.80;99.90;;;;;;5073596;28;20055;-64
2023/07/25 09:18:25;;;;;;;6.60;2.15;;;18.60;99.90;;;;;;5073347;28;20032;-64
2023/07/25 09:20:50;;;;;;;10.10;2.40;;;18.60;99.90;;;;;;5073344;28;20029;-64
2023/07/25 09:23:21;;;;;;;7.57;2.25;;;18.60;99.90;;;;;;5073583;28;20033;-64
2023/07/25 09:25:47;;;;;;;7.82;2.75;;;18.80;99.90;;;;;;5055584;28;20039;-64
2023/07/25 09:28:13;;;;;;;9.45;2.90;;;18.90;99.90;;;;;;5073495;28;20024;-64
2023/07/25 09:30:48;;;;;;;6.97;2.47;;;18.90;99.90;;;;;;5073140;28;20500;-64
2023/07/25 09:33:28;;;;;;;6.70;2.65;;;18.90;99.90;;;;;;5055901;28;20027;-65
2023/07/25 09:35:54;;;;;;;7.40;2.35;;;19.00;99.90;;;;;;5072958;28;20028;-64
2023/07/25 09:38:20;;;;;;;6.38;2.42;;;19.00;93.70;;;;;;5073324;28;20436;-64
2023/07/25 09:40:47;;;;;;;6.60;2.30;;;18.70;99.90;;;;;;5072979;28;20091;-64
2023/07/25 09:43:28;;;;;;;6.63;2.17;;;18.80;99.90;;;;;;5073221;28;20029;-64
2023/07/25 09:45:54;;;;;;;10.25;2.50;;;18.80;99.90;;;;;;5072983;28;20036;-64
2023/07/25 09:48:21;;;;;;;5.78;2.50;;;18.70;99.90;;;;;;5073044;28;20021;-64
2023/07/25 09:50:47;;;;;;;5.70;2.40;;;18.60;99.90;;;;;;5072988;28;20481;-65
2023/07/25 09:53:14;;;;;;;9.95;2.60;;;18.60;99.90;;;;;;5055225;28;20423;-64
2023/07/25 09:55:40;;;;;;;8.52;2.50;;;18.80;99.90;;;;;;5072999;28;20028;-64
2023/07/25 09:58:06;;;;;;;9.45;3.08;;;18.90;99.90;;;;;;5073151;28;20035;-64
2023/07/25 10:00:32;;;;;;;11.32;3.75;;;18.80;99.90;;;;;;5073077;28;20033;-65
2023/07/25 10:02:59;;;;;;;10.63;2.95;;;19.10;99.90;;;;;;5055259;28;20025;-65
2023/07/25 10:05:28;;;;;;;9.02;3.00;;;18.80;99.90;;;;;;5072899;28;20374;-65
2023/07/25 10:07:56;;;;;;;9.80;2.80;;;19.00;99.90;;;;;;5072952;28;20020;-65
2023/07/25 10:10:22;;;;;;;5.75;2.63;;;19.00;99.90;;;;;;5073876;28;20094;-65
2023/07/25 10:12:47;;;;;;;7.90;3.08;;;19.40;99.90;;;;;;5073931;28;20466;-65
2023/07/25 10:15:13;;;;;;;11.40;2.95;;;19.40;1.00;;;;;;5073337;28;20060;-68
2023/07/25 10:17:39;;;;;;;8.27;2.90;;;19.40;1.00;;;;;;5073320;28;20444;-71
2023/07/25 10:20:06;;;;;;;8.35;2.97;;;19.50;1.00;;;;;;5073242;28;20048;-74
2023/07/25 10:22:36;;;;;;;7.35;2.78;;;19.60;1.00;;;;;;5055075;28;20028;-72
2023/07/25 10:25:07;;;;;;;7.65;2.75;;;20.20;99.90;;;;;;5073247;28;20434;-72
2023/07/25 10:27:33;;;;;;;10.63;2.90;;;21.00;99.90;;;;;;5073012;28;20025;-71
2023/07/25 10:30:01;;;;;;;9.77;2.47;;;21.20;1.00;;;;;;5072946;28;20028;-71
2023/07/25 10:32:43;;;;;;;11.65;2.80;;;21.30;99.90;;;;;;5055129;28;20021;-70
2023/07/25 10:35:09;;;;;;;5.72;2.20;;;20.10;99.90;;;;;;5034081;28;20063;-70
2023/07/25 10:37:42;;;;;;;7.78;2.30;;;19.70;24.80;;;;;;5035050;28;20025;-71
2023/07/25 10:40:17;;;;;;;7.28;2.33;;;19.10;1.00;;;;;;5052455;28;20125;-72
2023/07/25 10:42:50;;;;;;;6.82;2.38;;;20.30;99.90;;;;;;5052785;28;20394;-70
2023/07/25 10:45:36;;;;;;;6.45;2.08;;;;;;;;;;5052673;28;20029;-71
2023/07/25 10:48:02;;;;;;;10.15;2.45;;;;;;;;;;5053272;28;20441;-70
2023/07/25 10:53:27;;;;;;;11.50;4.68;;;18.30;99.90;;;;;;5111691;27;20304;-71
2023/07/25 10:56:09;;;;;;;8.32;2.55;;;18.10;1.00;;;;;;5111373;28;20032;-71
2023/07/25 10:58:38;;;;;;;5.93;3.05;;;17.80;1.00;;;;;;5109894;28;20028;-71
2023/07/25 11:01:04;;;;;;;9.98;3.08;;;17.90;1.00;;;;;;5110114;28;20032;-71
2023/07/25 11:03:32;;;;;;;6.57;2.60;;;18.10;1.00;;;;;;5109880;28;20028;-71
2023/07/25 11:08:52;;;;;;;7.47;2.78;;;18.40;1.00;;;;;;5090865;28;20436;-70
2023/07/25 11:11:18;;;;;;;9.38;2.60;;;18.40;99.90;;;;;;5090781;28;20028;-70
2023/07/25 11:13:45;;;;;;;8.00;2.80;;;18.80;1.00;;;;;;5090645;28;20034;-70
2023/07/25 11:16:11;;;;;;;8.88;2.60;;;19.10;99.90;;;;;;5090790;28;20031;-70
2023/07/25 11:18:49;;;;;;;6.97;2.30;;;19.40;99.90;;;;;;5090913;28;20540;-70
2023/07/25 11:21:15;;;;;;;13.07;2.80;;;19.30;99.90;;;;;;5089369;28;20046;-70
2023/07/25 11:23:41;;;;;;;7.47;2.25;;;19.30;52.10;;;;;;5090621;28;20028;-70
2023/07/25 11:26:07;;;;;;;10.23;2.40;;;19.30;99.90;;;;;;5090841;28;20024;-70
2023/07/25 11:28:34;;;;;;;6.65;2.30;;;19.40;99.90;;;;;;5072435;28;20031;-70
2023/07/25 11:30:59;;;;;;;6.35;2.10;;;19.60;99.90;;;;;;5089332;28;20022;-70
2023/07/25 11:33:25;;;;;;;7.65;2.45;;;19.60;99.90;;;;;;5089254;28;20402;-70
2023/07/25 11:35:52;;;;;;;6.15;2.20;;;19.60;37.10;;;;;;5089218;28;20024;-70
2023/07/25 11:38:18;;;;;;;6.95;2.40;;;19.70;1.00;;;;;;5090484;28;20111;-70
2023/07/25 11:40:50;;;;;;;7.57;2.42;;;20.00;1.00;;;;;;5090156;28;20462;-70
2023/07/25 11:43:15;;;;;;;5.63;2.10;;;20.30;99.90;;;;;;5090303;28;20024;-70
2023/07/25 11:45:43;;;;;;;7.15;2.47;;;20.40;99.90;;;;;;5090045;28;20036;-70
2023/07/25 11:48:09;;;;;;;7.15;2.22;;;20.80;99.90;;;;;;5090032;28;20059;-70
2023/07/25 11:50:35;;;;;;;7.88;2.00;;;20.70;99.90;;;;;;5090269;28;20043;-70
2023/07/25 11:53:01;;;;;;;5.07;2.30;;;20.50;1.00;;;;;;5090102;28;20024;-70
2023/07/25 11:55:28;;;;;;;8.85;2.65;;;20.30;99.90;;;;;;5089881;28;20020;-70
2023/07/25 11:57:54;;;;;;;10.18;2.55;;;19.60;1.00;;;;;;5089879;28;20458;-70
2023/07/25 12:00:23;;;;;;;4.82;2.15;;;19.30;99.90;;;;;;5089786;28;20078;-70
2023/07/25 12:02:48;;;;;;;7.15;2.17;;;19.10;1.00;;;;;;5089921;28;20024;-70
2023/07/25 12:05:31;;;;;;;5.97;2.13;;;18.90;99.90;;;;;;5089891;28;20028;-69
2023/07/25 12:08:00;;;;;;;7.95;2.60;;;18.80;99.90;;;;;;5089175;28;20045;-69
2023/07/25 12:10:29;;;;;;;8.07;2.20;;;18.90;99.30;;;;;;5089726;28;20020;-70
2023/07/25 12:12:56;;;;;;;8.38;2.25;;;18.80;1.00;;;;;;5088320;28;20032;-70
2023/07/25 12:15:42;;;;;;;6.20;2.10;;;18.90;1.00;;;;;;5088396;28;20555;-70
2023/07/25 12:18:29;;;;;;;4.35;2.08;;;19.10;1.00;;;;;;5086989;28;20031;-69
2023/07/25 12:20:56;;;;;;;7.18;2.53;;;19.30;99.90;;;;;;5075778;28;20489;-70
2023/07/25 12:23:30;;;;;;;6.60;2.20;;;19.50;41.60;;;;;;5075154;28;20482;-70
2023/07/25 12:25:56;;;;;;;4.95;1.90;;;19.50;99.90;;;;;;5074172;28;20052;-70
2023/07/25 12:28:23;;;;;;;5.35;2.22;;;19.70;99.90;;;;;;5075664;28;20031;-70
2023/07/25 12:30:49;;;;;;;7.15;2.28;;;20.00;1.00;;;;;;5074459;28;20157;-70
2023/07/25 12:33:14;;;;;;;8.18;2.33;;;20.20;99.90;;;;;;5075678;28;20078;-70
2023/07/25 12:35:40;;;;;;;10.02;2.10;;;20.00;99.90;;;;;;5076021;28;20021;-70
2023/07/25 12:38:06;;;;;;;4.68;3.10;;;19.90;99.90;;;;;;5075657;28;20024;-69
2023/07/25 12:40:31;;;;;;;6.95;2.17;;;20.10;99.90;;;;;;5075773;28;20469;-69
2023/07/25 12:42:57;;;;;;;6.20;2.05;;;20.30;99.90;;;;;;5075449;28;20024;-69
2023/07/25 12:45:22;;;;;;;6.90;1.98;;;20.70;1.00;;;;;;5075472;28;20057;-68
2023/07/25 12:47:48;;;;;;;7.80;2.30;;;20.50;99.90;;;;;;5075545;28;20420;-69
2023/07/25 12:50:13;;;;;;;8.50;2.00;;;20.40;1.00;;;;;;5075455;28;20429;-71
2023/07/25 12:52:39;;;;;;;5.13;2.13;;;20.10;1.00;;;;;;5075595;28;20021;-70
2023/07/25 12:55:05;;;;;;;4.03;2.10;;;20.10;99.90;;;;;;5075565;28;20464;-69
2023/07/25 12:57:31;;;;;;;4.50;2.17;;;20.10;1.00;;;;;;5075565;28;20478;-70